Time;durP1;ratioP1;P1;durP2;ratioP2;P2;SDS_P1;SDS_P2;PMS_P1;PMS_P2;Temp;Humidity;BMP_temperature;BMP_pressure;BME280_temperature;BME280_humidity;BME280_pressure;Samples;Min_cycle;Max_cycle;Signal;HPM_P1;HPM_P2
2023/04/28 00:00:26;;;;;;;;;;;9.80;62.20;;;;;;5006283;28;19914;-84
2023/04/28 00:02:52;;;;;;;;;;;9.80;62.40;;;;;;5021717;28;19913;-84
2023/04/28 00:05:18;;;;;;;;;;;9.80;62.40;;;;;;5016384;28;19925;-83
2023/04/28 00:07:43;;;;;;;;;;;9.80;62.60;;;;;;5016961;28;19913;-84
2023/04/28 00:10:09;;;;;;;;;;;9.80;62.50;;;;;;4999075;28;19929;-83
2023/04/28 00:12:34;;;;;;;;;;;9.80;62.90;;;;;;4998500;28;19928;-84
2023/04/28 00:15:00;;;;;;;;;;;10.00;62.00;;;;;;5009974;28;19913;-84
2023/04/28 00:17:25;;;;;;;;;;;9.90;62.30;;;;;;4995151;28;19937;-83
2023/04/28 00:19:51;;;;;;;;;;;9.90;62.60;;;;;;5021180;28;19968;-83
2023/04/28 00:22:17;;;;;;;;;;;9.80;63.40;;;;;;4996174;28;19914;-83
2023/04/28 00:24:43;;;;;;;;;;;9.80;64.40;;;;;;4992505;28;19918;-83
2023/04/28 00:27:09;;;;;;;;;;;9.80;64.10;;;;;;5016026;28;20449;-83
2023/04/28 00:29:35;;;;;;;;;;;9.80;64.10;;;;;;5000976;28;19913;-83
2023/04/28 00:32:01;;;;;;;;;;;9.80;63.50;;;;;;4993628;28;19910;-84
2023/04/28 00:34:28;;;;;;;;;;;9.80;63.40;;;;;;5016710;28;19920;-83
2023/04/28 00:36:53;;;;;;;;;;;9.80;64.10;;;;;;4999470;28;19909;-83
2023/04/28 00:39:21;;;;;;;;;;;10.00;63.70;;;;;;5020711;28;19932;-83
2023/04/28 00:41:46;;;;;;;;;;;10.00;63.80;;;;;;5014001;28;19909;-83
2023/04/28 00:44:12;;;;;;;;;;;10.00;64.70;;;;;;5017606;28;19947;-83
2023/04/28 00:46:37;;;;;;;;;;;10.00;64.60;;;;;;5013770;28;19957;-84
2023/04/28 00:49:03;;;;;;;;;;;10.10;63.80;;;;;;5022515;28;19924;-83
2023/04/28 00:51:28;;;;;;;;;;;10.10;63.40;;;;;;5010836;28;19936;-83
2023/04/28 00:53:54;;;;;;;;;;;10.20;63.60;;;;;;5000105;28;19945;-83
2023/04/28 00:56:20;;;;;;;;;;;10.20;64.30;;;;;;4994664;28;19967;-83
2023/04/28 00:58:45;;;;;;;;;;;10.20;65.10;;;;;;5015823;28;19921;-83
2023/04/28 01:01:11;;;;;;;;;;;10.20;63.50;;;;;;5003063;28;20379;-84
2023/04/28 01:03:37;;;;;;;;;;;10.10;66.60;;;;;;4998616;28;19913;-83
2023/04/28 01:06:04;;;;;;;;;;;10.00;69.20;;;;;;4995409;28;19914;-84
2023/04/28 01:08:30;;;;;;;;;;;10.00;70.40;;;;;;5000818;28;20217;-83
2023/04/28 01:10:55;;;;;;;;;;;9.90;70.50;;;;;;5024033;28;20000;-83
2023/04/28 01:13:21;;;;;;;;;;;9.90;70.90;;;;;;4994920;28;19917;-83
2023/04/28 01:15:46;;;;;;;;;;;9.90;72.00;;;;;;5012654;28;19925;-84
2023/04/28 01:18:12;;;;;;;;;;;9.90;71.30;;;;;;4995200;28;19920;-84
2023/04/28 01:20:37;;;;;;;;;;;9.90;71.80;;;;;;4995700;28;19960;-83
2023/04/28 01:23:03;;;;;;;;;;;9.90;70.80;;;;;;5013618;28;19917;-83
2023/04/28 01:25:28;;;;;;;;;;;9.80;72.40;;;;;;5007344;28;20410;-84
2023/04/28 01:27:54;;;;;;;;;;;9.80;73.10;;;;;;5003762;28;20088;-83
2023/04/28 01:30:20;;;;;;;;;;;9.80;72.30;;;;;;4994577;28;20056;-84
2023/04/28 01:32:45;;;;;;;;;;;9.80;74.30;;;;;;5004903;28;19913;-84
2023/04/28 01:35:10;;;;;;;;;;;9.70;74.00;;;;;;5007731;28;19921;-84
2023/04/28 01:37:36;;;;;;;;;;;9.60;75.80;;;;;;4994308;28;20462;-83
2023/04/28 01:40:01;;;;;;;;;;;9.60;75.80;;;;;;4993709;28;20000;-83
2023/04/28 01:42:27;;;;;;;;;;;9.50;77.10;;;;;;4993445;28;20314;-84
2023/04/28 01:44:52;;;;;;;;;;;9.50;77.60;;;;;;4991535;28;20040;-84
2023/04/28 01:47:18;;;;;;;;;;;9.40;78.50;;;;;;4993507;28;19914;-85
2023/04/28 01:49:46;;;;;;;;;;;9.40;79.40;;;;;;5001510;28;19921;-84
2023/04/28 01:52:12;;;;;;;;;;;9.20;80.40;;;;;;5007293;28;19919;-85
2023/04/28 01:54:37;;;;;;;;;;;9.30;80.70;;;;;;5024340;28;19920;-84
2023/04/28 01:57:02;;;;;;;;;;;9.30;81.10;;;;;;4992058;28;19960;-84
2023/04/28 01:59:28;;;;;;;;;;;9.20;81.00;;;;;;4997154;28;19944;-85
2023/04/28 02:01:53;;;;;;;;;;;9.20;80.20;;;;;;5013926;28;19920;-85
2023/04/28 02:04:19;;;;;;;;;;;9.20;80.60;;;;;;5014161;28;20422;-85
2023/04/28 02:06:44;;;;;;;;;;;9.30;80.80;;;;;;4996735;28;20292;-85
2023/04/28 02:09:10;;;;;;;;;;;9.20;81.30;;;;;;5012778;28;19920;-85
2023/04/28 02:11:35;;;;;;;;;;;9.30;81.40;;;;;;4995234;28;19951;-84
2023/04/28 02:14:01;;;;;;;;;;;9.30;82.10;;;;;;4995234;28;20338;-84
2023/04/28 02:16:26;;;;;;;;;;;9.30;82.20;;;;;;5013185;28;20256;-85
2023/04/28 02:18:52;;;;;;;;;;;9.30;81.90;;;;;;4993848;28;19948;-85
2023/04/28 02:21:17;;;;;;;;;;;9.20;82.00;;;;;;5012157;28;19918;-84
2023/04/28 02:23:42;;;;;;;;;;;9.20;81.80;;;;;;4994358;28;19968;-84
2023/04/28 02:26:08;;;;;;;;;;;9.20;81.40;;;;;;4987087;28;19921;-84
2023/04/28 02:28:33;;;;;;;;;;;9.20;81.90;;;;;;4994216;28;19913;-84
2023/04/28 02:31:06;;;;;;;;;;;9.20;82.50;;;;;;4992241;28;19922;-84
2023/04/28 02:33:32;;;;;;;;;;;9.10;82.50;;;;;;4999216;28;19917;-84
2023/04/28 02:35:58;;;;;;;;;;;9.10;83.30;;;;;;4996661;28;20100;-85
2023/04/28 02:38:23;;;;;;;;;;;9.20;83.20;;;;;;4993966;28;19996;-84
2023/04/28 02:40:56;;;;;;;;;;;9.20;83.60;;;;;;4993614;28;19956;-85
2023/04/28 02:43:21;;;;;;;;;;;9.10;84.10;;;;;;5010333;28;19964;-84
2023/04/28 02:45:46;;;;;;;;;;;9.20;84.20;;;;;;5007435;28;19949;-85
2023/04/28 02:48:12;;;;;;;;;;;9.10;84.50;;;;;;5019246;28;19914;-84
2023/04/28 02:50:37;;;;;;;;;;;9.00;85.00;;;;;;4994344;28;19973;-84
2023/04/28 02:53:03;;;;;;;;;;;9.10;85.10;;;;;;5024028;28;19909;-85
2023/04/28 02:55:28;;;;;;;;;;;9.20;84.70;;;;;;4995481;28;19914;-84
2023/04/28 02:57:54;;;;;;;;;;;9.20;84.90;;;;;;5015560;28;19917;-84
2023/04/28 03:00:20;;;;;;;;;;;9.30;84.70;;;;;;5014530;28;20000;-84
2023/04/28 03:02:45;;;;;;;;;;;9.30;84.90;;;;;;5017695;28;20334;-84
2023/04/28 03:05:11;;;;;;;;;;;9.30;84.80;;;;;;5011771;28;20046;-85
2023/04/28 03:07:36;;;;;;;;;;;9.30;85.20;;;;;;4990243;28;19933;-84
2023/04/28 03:10:01;;;;;;;;;;;9.30;85.00;;;;;;4991787;28;21309;-84
2023/04/28 03:12:27;;;;;;;;;;;9.30;85.50;;;;;;5011499;28;19910;-84
2023/04/28 03:14:52;;;;;;;;;;;9.30;85.60;;;;;;5020656;28;19924;-84
2023/04/28 03:17:18;;;;;;;;;;;9.30;85.70;;;;;;5011092;28;19936;-84
2023/04/28 03:19:43;;;;;;;;;;;9.30;85.30;;;;;;5001500;28;19979;-83
2023/04/28 03:22:09;;;;;;;;;;;9.30;85.30;;;;;;5023485;28;19910;-84
2023/04/28 03:24:34;;;;;;;;;;;9.20;86.00;;;;;;5009057;28;20563;-84
2023/04/28 03:27:01;;;;;;;;;;;9.20;86.40;;;;;;5000503;28;19913;-83
2023/04/28 03:29:26;;;;;;;;;;;9.30;86.70;;;;;;4997253;28;19924;-84
2023/04/28 03:31:51;;;;;;;;;;;9.30;86.80;;;;;;5017610;28;19996;-84
2023/04/28 03:34:17;;;;;;;;;;;9.30;86.50;;;;;;4999159;28;20047;-84
2023/04/28 03:36:42;;;;;;;;;;;9.40;86.80;;;;;;5000100;28;19917;-84
2023/04/28 03:39:08;;;;;;;;;;;9.40;86.80;;;;;;5014229;28;19914;-84
2023/04/28 03:41:34;;;;;;;;;;;9.50;87.00;;;;;;5016322;28;19918;-84
2023/04/28 03:43:59;;;;;;;;;;;9.50;87.00;;;;;;5008919;28;19921;-84
2023/04/28 03:46:25;;;;;;;;;;;9.40;87.10;;;;;;5006132;28;20378;-84
2023/04/28 03:48:50;;;;;;;;;;;9.40;87.40;;;;;;4997593;28;20422;-84
2023/04/28 03:51:16;;;;;;;;;;;9.30;87.40;;;;;;5016868;28;20004;-84
2023/04/28 03:53:41;;;;;;;;;;;9.40;87.60;;;;;;4998521;28;20005;-84
2023/04/28 03:56:06;;;;;;;;;;;9.40;87.50;;;;;;4997636;28;19921;-84
2023/04/28 03:58:32;;;;;;;;;;;9.30;87.60;;;;;;4992322;28;19968;-84
2023/04/28 04:00:59;;;;;;;;;;;9.30;87.90;;;;;;4994927;28;19914;-84
2023/04/28 04:03:25;;;;;;;;;;;9.40;87.70;;;;;;5003415;28;19967;-83
2023/04/28 04:05:52;;;;;;;;;;;9.40;87.70;;;;;;5020575;28;20456;-84
2023/04/28 04:08:18;;;;;;;;;;;9.30;87.90;;;;;;5009487;28;19936;-84
2023/04/28 04:10:43;;;;;;;;;;;9.40;88.00;;;;;;5002127;28;19919;-83
2023/04/28 04:13:09;;;;;;;;;;;9.50;88.10;;;;;;5012680;28;19916;-83
2023/04/28 04:15:34;;;;;;;;;;;9.50;88.10;;;;;;4993724;28;19929;-83
2023/04/28 04:18:00;;;;;;;;;;;9.60;87.90;;;;;;4992067;28;19913;-84
2023/04/28 04:20:26;;;;;;;;;;;9.60;88.00;;;;;;5017771;28;20012;-84
2023/04/28 04:22:51;;;;;;;;;;;9.60;88.10;;;;;;5000829;28;19932;-84
2023/04/28 04:25:17;;;;;;;;;;;9.60;88.00;;;;;;5018217;28;19943;-84
2023/04/28 04:27:42;;;;;;;;;;;9.60;88.20;;;;;;5006031;28;19913;-84
2023/04/28 04:30:08;;;;;;;;;;;9.50;88.20;;;;;;4997209;28;19918;-84
2023/04/28 04:32:33;;;;;;;;;;;9.50;88.30;;;;;;5015175;28;19918;-84
2023/04/28 04:34:59;;;;;;;;;;;9.60;88.40;;;;;;5025520;28;19913;-83
2023/04/28 04:37:24;;;;;;;;;;;9.60;88.40;;;;;;5018027;28;19920;-84
2023/04/28 04:39:50;;;;;;;;;;;9.70;88.40;;;;;;5016078;28;20017;-83
2023/04/28 04:42:15;;;;;;;;;;;9.70;88.40;;;;;;5014454;28;20354;-83
2023/04/28 04:44:40;;;;;;;;;;;9.70;88.40;;;;;;4994500;28;19972;-83
2023/04/28 04:47:06;;;;;;;;;;;9.80;88.60;;;;;;5005863;28;19996;-83
2023/04/28 04:49:31;;;;;;;;;;;9.80;88.60;;;;;;5000321;28;20039;-83
2023/04/28 04:51:58;;;;;;;;;;;9.80;88.60;;;;;;4994620;28;19924;-83
2023/04/28 04:54:23;;;;;;;;;;;9.90;88.70;;;;;;4999107;28;20376;-82
2023/04/28 04:56:49;;;;;;;;;;;9.90;88.60;;;;;;4996430;28;19913;-84
2023/04/28 04:59:14;;;;;;;;;;;9.90;88.90;;;;;;4992151;28;19922;-84
2023/04/28 05:01:40;;;;;;;;;;;10.00;88.90;;;;;;4997121;28;19964;-84
2023/04/28 05:04:06;;;;;;;;;;;10.00;88.90;;;;;;4997559;28;19918;-81
2023/04/28 05:06:32;;;;;;;;;;;10.00;88.90;;;;;;5018456;28;19924;-85
2023/04/28 05:08:58;;;;;;;;;;;10.00;89.00;;;;;;4989369;28;20659;-82
2023/04/28 05:11:23;;;;;;;;;;;10.10;89.10;;;;;;4994333;28;20021;-83
2023/04/28 05:13:49;;;;;;;;;;;10.10;89.20;;;;;;5010117;28;19920;-83
2023/04/28 05:16:14;;;;;;;;;;;10.10;89.10;;;;;;5001565;28;20016;-83
2023/04/28 05:18:40;;;;;;;;;;;10.20;89.10;;;;;;4993317;28;20371;-83
2023/04/28 05:21:05;;;;;;;;;;;10.10;89.40;;;;;;4995494;28;19917;-83
2023/04/28 05:23:31;;;;;;;;;;;10.20;89.50;;;;;;5020365;28;19914;-84
2023/04/28 05:25:56;;;;;;;;;;;10.20;89.50;;;;;;5015026;28;19917;-84
2023/04/28 05:28:22;;;;;;;;;;;10.30;89.80;;;;;;4998911;28;19921;-83
2023/04/28 05:30:47;;;;;;;;;;;10.20;89.50;;;;;;5007830;28;19921;-85
2023/04/28 05:33:13;;;;;;;;;;;10.20;89.50;;;;;;4991954;28;19945;-83
2023/04/28 05:35:39;;;;;;;;;;;10.20;89.90;;;;;;4995205;28;20302;-88
2023/04/28 05:38:05;;;;;;;;;;;10.20;89.90;;;;;;4993552;28;19913;-89
2023/04/28 05:40:31;;;;;;;;;;;10.20;89.80;;;;;;4986970;28;19996;-85
2023/04/28 05:42:56;;;;;;;;;;;10.20;89.80;;;;;;5010070;28;19959;-86
2023/04/28 05:45:22;;;;;;;;;;;10.30;90.00;;;;;;4992722;28;19914;-85
2023/04/28 05:47:47;;;;;;;;;;;10.30;89.90;;;;;;5009093;28;19932;-85
2023/04/28 05:50:13;;;;;;;;;;;10.40;89.80;;;;;;5039709;22;19971;-85
2023/04/28 05:52:38;;;;;;;;;;;10.40;89.80;;;;;;5015512;28;19988;-85
2023/04/28 05:55:04;;;;;;;;;;;10.50;89.70;;;;;;5018269;28;19920;-85
2023/04/28 05:57:29;;;;;;;;;;;10.50;89.50;;;;;;5016763;28;19925;-83
2023/04/28 05:59:55;;;;;;;;;;;10.50;89.50;;;;;;5012677;28;19937;-84
2023/04/28 06:02:20;;;;;;;;;;;10.50;89.70;;;;;;5007922;28;20412;-85
2023/04/28 06:04:46;;;;;;;;;;;10.60;89.50;;;;;;5012045;28;19913;-84
2023/04/28 06:07:11;;;;;;;;;;;10.80;89.40;;;;;;5015418;28;19917;-84
2023/04/28 06:09:37;;;;;;;;;;;10.90;88.80;;;;;;5015377;28;19993;-85
2023/04/28 06:12:02;;;;;;;;;;;11.00;89.00;;;;;;5017492;28;19981;-84
2023/04/28 06:14:28;;;;;;;;;;;11.10;88.90;;;;;;5021128;28;19914;-84
2023/04/28 06:16:53;;;;;;;;;;;11.10;88.40;;;;;;5010933;28;20399;-83
2023/04/28 06:19:19;;;;;;;;;;;11.10;88.60;;;;;;5021380;28;19924;-84
2023/04/28 06:21:45;;;;;;;;;;;11.10;88.80;;;;;;5013486;28;19969;-84
2023/04/28 06:24:10;;;;;;;;;;;11.00;88.50;;;;;;5011269;28;19913;-83
2023/04/28 06:26:36;;;;;;;;;;;10.90;88.40;;;;;;5012504;28;19913;-83
2023/04/28 06:29:02;;;;;;;;;;;10.90;88.50;;;;;;5018858;28;19913;-84
2023/04/28 06:31:27;;;;;;;;;;;10.80;88.80;;;;;;5011201;28;19975;-82
2023/04/28 06:33:53;;;;;;;;;;;10.80;88.80;;;;;;5027757;28;19964;-83
2023/04/28 06:36:18;;;;;;;;;;;10.80;89.00;;;;;;5027673;28;19920;-84
2023/04/28 06:38:44;;;;;;;;;;;10.90;89.10;;;;;;5033071;28;20359;-84
2023/04/28 06:41:10;;;;;;;;;;;10.90;89.20;;;;;;5026456;28;19920;-84
2023/04/28 06:43:36;;;;;;;;;;;10.90;89.20;;;;;;5004573;28;19917;-85
2023/04/28 06:46:01;;;;;;;;;;;10.80;89.30;;;;;;5006550;28;19910;-84
2023/04/28 06:48:27;;;;;;;;;;;10.90;89.20;;;;;;5012163;28;19922;-84
2023/04/28 06:50:52;;;;;;;;;;;11.00;89.30;;;;;;5013010;28;19932;-84
2023/04/28 06:53:18;;;;;;;;;;;11.00;89.40;;;;;;5010299;28;20299;-84
2023/04/28 06:55:43;;;;;;;;;;;11.10;88.90;;;;;;5014480;28;19971;-84
2023/04/28 06:58:09;;;;;;;;;;;11.30;88.80;;;;;;5015221;28;19913;-85
2023/04/28 07:00:34;;;;;;;;;;;11.50;88.50;;;;;;5018527;28;19925;-84
2023/04/28 07:03:00;;;;;;;;;;;11.70;88.40;;;;;;5013427;28;19915;-84
2023/04/28 07:05:26;;;;;;;;;;;11.90;88.30;;;;;;5026652;28;19952;-84
2023/04/28 07:07:52;;;;;;;;;;;12.00;88.10;;;;;;5011539;28;19920;-83
2023/04/28 07:10:17;;;;;;;;;;;12.10;87.50;;;;;;5024574;28;19921;-83
2023/04/28 07:12:43;;;;;;;;;;;12.10;86.70;;;;;;5010068;28;19964;-84
2023/04/28 07:15:08;;;;;;;;;;;12.10;86.70;;;;;;5007836;28;19918;-84
2023/04/28 07:17:34;;;;;;;;;;;12.10;86.30;;;;;;5015907;28;20364;-84
2023/04/28 07:19:59;;;;;;;;;;;12.00;86.40;;;;;;5015406;28;19955;-83
2023/04/28 07:22:25;;;;;;;;;;;12.10;86.70;;;;;;5027398;28;19984;-84
2023/04/28 07:24:51;;;;;;;;;;;12.10;87.00;;;;;;5014239;28;19963;-84
2023/04/28 07:27:16;;;;;;;;;;;12.20;86.20;;;;;;5021667;28;19921;-84
2023/04/28 07:29:42;;;;;;;;;;;12.10;86.00;;;;;;5018374;28;19999;-84
2023/04/28 07:32:09;;;;;;;;;;;12.30;86.30;;;;;;5013656;28;19932;-85
2023/04/28 07:34:34;;;;;;;;;;;12.30;86.30;;;;;;5019665;28;20288;-84
2023/04/28 07:37:00;;;;;;;;;;;12.30;86.40;;;;;;5019978;28;19913;-84
2023/04/28 07:39:26;;;;;;;;;;;12.40;86.10;;;;;;5022837;28;19976;-84
2023/04/28 07:41:51;;;;;;;;;;;12.50;86.40;;;;;;5013460;28;19918;-83
2023/04/28 07:44:17;;;;;;;;;;;12.60;86.30;;;;;;5015883;28;19913;-83
2023/04/28 07:46:42;;;;;;;;;;;12.50;84.20;;;;;;5012683;28;20016;-83
2023/04/28 07:49:08;;;;;;;;;;;12.50;84.70;;;;;;5015551;28;19959;-84
2023/04/28 07:51:34;;;;;;;;;;;12.60;85.20;;;;;;5018207;28;19999;-84
2023/04/28 07:53:59;;;;;;;;;;;12.60;84.70;;;;;;5009108;28;20481;-83
2023/04/28 07:56:25;;;;;;;;;;;12.60;85.20;;;;;;5008058;28;19918;-82
2023/04/28 07:58:50;;;;;;;;;;;12.60;84.70;;;;;;5008537;28;19972;-82
2023/04/28 08:01:16;;;;;;;;;;;12.70;85.30;;;;;;5010592;28;19913;-83
2023/04/28 08:03:42;;;;;;;;;;;13.10;84.60;;;;;;5018449;28;19913;-85
2023/04/28 08:06:07;;;;;;;;;;;13.10;83.80;;;;;;5012837;28;19918;-82
2023/04/28 08:08:33;;;;;;;;;;;13.10;83.60;;;;;;5014599;28;19914;-83
2023/04/28 08:10:59;;;;;;;;;;;13.20;83.60;;;;;;5022501;28;19918;-83
2023/04/28 08:13:25;;;;;;;;;;;13.30;83.30;;;;;;5035138;28;20118;-83
2023/04/28 08:15:52;;;;;;;;;;;13.40;83.40;;;;;;5020946;28;19949;-83
2023/04/28 08:18:18;;;;;;;;;;;13.70;82.80;;;;;;5018964;28;19913;-83
2023/04/28 08:20:43;;;;;;;;;;;13.70;82.70;;;;;;5023199;28;20322;-82
2023/04/28 08:23:09;;;;;;;;;;;14.00;82.80;;;;;;5016167;28;19929;-83
2023/04/28 08:25:34;;;;;;;;;;;14.10;82.00;;;;;;5038820;28;19913;-83
2023/04/28 08:28:02;;;;;;;;;;;14.00;82.70;;;;;;5022712;28;19914;-82
2023/04/28 08:30:27;;;;;;;;;;;13.90;81.90;;;;;;5029484;28;19917;-82
2023/04/28 08:32:53;;;;;;;;;;;14.00;82.10;;;;;;5009198;28;19921;-83
2023/04/28 08:35:18;;;;;;;;;;;14.00;82.20;;;;;;5010212;28;20331;-82
2023/04/28 08:37:44;;;;;;;;;;;14.10;81.70;;;;;;5015549;28;19960;-83
2023/04/28 08:40:10;;;;;;;;;;;14.20;81.30;;;;;;5017642;28;19917;-83
2023/04/28 08:42:36;;;;;;;;;;;14.20;81.70;;;;;;5025922;28;19913;-83
2023/04/28 08:45:03;;;;;;;;;;;14.50;81.50;;;;;;5038975;28;19921;-83
2023/04/28 08:47:37;;;;;;;;;;;14.80;80.30;;;;;;5016803;28;19910;-83
2023/04/28 08:50:06;;;;;;;;;;;15.00;80.50;;;;;;5014028;28;19917;-83
2023/04/28 08:52:32;;;;;;;;;;;15.20;79.60;;;;;;5017820;28;19952;-83
2023/04/28 08:54:59;;;;;;;;;;;15.20;79.60;;;;;;5034768;28;19914;-83
2023/04/28 08:57:31;;;;;;;;;;;15.10;79.60;;;;;;5010339;28;19960;-83
2023/04/28 08:59:57;;;;;;;;;;;15.00;79.90;;;;;;5006245;28;19975;-83
2023/04/28 09:02:22;;;;;;;;;;;14.90;79.60;;;;;;5015293;28;20347;-84
2023/04/28 09:04:50;;;;;;;;;;;14.80;79.90;;;;;;5022308;28;19924;-87
2023/04/28 09:07:16;;;;;;;;;;;14.60;80.30;;;;;;5030936;28;20490;-83
2023/04/28 09:09:41;;;;;;;;;;;14.60;80.50;;;;;;5011022;28;20991;-84
2023/04/28 09:12:07;;;;;;;;;;;14.60;80.50;;;;;;5011746;28;19917;-84
2023/04/28 09:14:37;;;;;;;;;;;14.70;80.80;;;;;;5010378;28;20278;-84
2023/04/28 09:17:10;;;;;;;;;;;15.00;80.20;;;;;;5009337;28;19953;-84
2023/04/28 09:19:37;;;;;;;;;;;15.20;78.70;;;;;;5009749;28;19923;-84
2023/04/28 09:22:05;;;;;;;;;;;15.30;78.30;;;;;;5014365;28;19940;-84
2023/04/28 09:24:32;;;;;;;;;;;15.20;78.40;;;;;;5027549;28;19928;-83
2023/04/28 09:26:58;;;;;;;;;;;15.00;78.40;;;;;;5013310;28;19920;-82
2023/04/28 09:29:24;;;;;;;;;;;15.00;79.70;;;;;;5012678;28;19913;-84
2023/04/28 09:31:49;;;;;;;;;;;15.10;79.30;;;;;;5006493;28;19925;-83
2023/04/28 09:34:15;;;;;;;;;;;15.10;79.00;;;;;;5004802;28;19928;-85
2023/04/28 09:36:41;;;;;;;;;;;15.10;79.30;;;;;;5010966;28;19953;-83
2023/04/28 09:39:06;;;;;;;;;;;15.30;78.90;;;;;;5011908;28;19971;-83
2023/04/28 09:41:37;;;;;;;;;;;15.50;78.20;;;;;;5017093;28;20347;-82
2023/04/28 09:44:15;;;;;;;;;;;15.50;78.10;;;;;;5014640;28;19922;-82
2023/04/28 09:46:42;;;;;;;;;;;15.50;77.90;;;;;;5012704;28;19936;-83
2023/04/28 09:49:08;;;;;;;;;;;15.50;77.80;;;;;;5012744;28;19913;-84
2023/04/28 09:51:34;;;;;;;;;;;15.60;77.50;;;;;;5013249;28;20353;-83
2023/04/28 09:54:01;;;;;;;;;;;15.40;77.80;;;;;;5007239;28;20346;-83
2023/04/28 09:56:28;;;;;;;;;;;15.20;77.50;;;;;;5008835;28;19914;-82
2023/04/28 09:58:55;;;;;;;;;;;15.00;78.20;;;;;;5026711;28;19914;-83
2023/04/28 10:01:21;;;;;;;;;;;15.10;78.80;;;;;;5011132;28;19917;-85
2023/04/28 10:03:47;;;;;;;;;;;15.00;78.80;;;;;;5020302;28;19975;-82
2023/04/28 10:06:13;;;;;;;;;;;15.10;78.80;;;;;;5023833;28;19992;-83
2023/04/28 10:08:39;;;;;;;;;;;15.10;79.00;;;;;;5020346;28;19952;-83
2023/04/28 10:11:05;;;;;;;;;;;15.30;80.10;;;;;;5011470;28;19948;-82
2023/04/28 10:13:31;;;;;;;;;;;15.50;79.20;;;;;;5020952;28;19972;-82
2023/04/28 10:15:57;;;;;;;;;;;15.50;78.30;;;;;;5018609;28;19917;-85
2023/04/28 10:18:23;;;;;;;;;;;15.60;78.00;;;;;;5023975;28;20397;-84
2023/04/28 10:20:49;;;;;;;;;;;16.00;77.50;;;;;;5004248;28;19971;-83
2023/04/28 10:23:15;;;;;;;;;;;16.10;77.90;;;;;;5001814;28;20028;-83
2023/04/28 10:25:41;;;;;;;;;;;16.20;76.90;;;;;;5002020;28;19996;-83
2023/04/28 10:28:07;;;;;;;;;;;16.30;76.80;;;;;;5005091;28;19968;-83
2023/04/28 10:30:33;;;;;;;;;;;16.30;76.50;;;;;;5010672;28;20006;-83
2023/04/28 10:33:11;;;;;;;;;;;16.30;76.30;;;;;;5015662;28;20312;-83
2023/04/28 10:35:44;;;;;;;;;;;16.40;75.90;;;;;;5025677;28;19913;-85
2023/04/28 10:38:13;;;;;;;;;;;16.50;76.10;;;;;;5006352;28;20422;-85
2023/04/28 10:40:43;;;;;;;;;;;16.50;75.50;;;;;;5000978;28;19913;-85
2023/04/28 10:43:09;;;;;;;;;;;16.60;75.70;;;;;;5000955;28;20386;-84
2023/04/28 10:45:53;;;;;;;;;;;16.60;76.00;;;;;;5005396;28;19922;-83
2023/04/28 10:48:19;;;;;;;;;;;16.80;76.00;;;;;;5006202;28;19953;-84
2023/04/28 10:51:14;;;;;;;;;;;16.50;76.30;;;;;;5005581;28;19993;-84
2023/04/28 10:53:43;;;;;;;;;;;16.50;76.70;;;;;;4991354;28;19929;-87
2023/04/28 10:56:13;;;;;;;;;;;16.20;77.70;;;;;;5020866;28;19917;-85
2023/04/28 10:58:42;;;;;;;;;;;16.10;78.50;;;;;;5006103;28;19913;-89
2023/04/28 11:01:20;;;;;;;;;;;16.10;78.50;;;;;;5005380;28;19913;-83
2023/04/28 11:03:45;;;;;;;;;;;16.10;78.90;;;;;;5005522;28;19921;-83
2023/04/28 11:06:19;;;;;;;;;;;16.10;78.10;;;;;;5005965;28;19921;-84
2023/04/28 11:08:44;;;;;;;;;;;16.10;78.30;;;;;;5009274;28;19948;-85
2023/04/28 11:11:14;;;;;;;;;;;16.10;78.50;;;;;;5012062;28;19956;-84
2023/04/28 11:13:40;;;;;;;;;;;16.00;78.70;;;;;;5012972;28;19955;-84
2023/04/28 11:16:05;;;;;;;;;;;15.80;79.40;;;;;;5013373;28;19917;-84
2023/04/28 11:18:47;;;;;;;;;;;15.80;79.80;;;;;;5005504;28;19937;-83
2023/04/28 11:21:13;;;;;;;;;;;15.60;80.40;;;;;;5008905;28;19981;-85
2023/04/28 11:23:38;;;;;;;;;;;15.60;81.10;;;;;;5006428;28;20302;-85
2023/04/28 11:26:07;;;;;;;;;;;15.30;81.90;;;;;;5005352;28;19914;-85
2023/04/28 11:28:35;;;;;;;;;;;15.20;82.60;;;;;;5005869;28;19913;-85
2023/04/28 11:31:12;;;;;;;;;;;15.30;83.20;;;;;;5006170;28;19924;-85
2023/04/28 11:33:38;;;;;;;;;;;15.30;83.80;;;;;;5022923;28;19914;-86
2023/04/28 11:36:07;;;;;;;;;;;15.30;84.60;;;;;;5004038;28;19936;-87
2023/04/28 11:38:42;;;;;;;;;;;15.20;85.40;;;;;;5005901;28;19924;-87
2023/04/28 11:41:08;;;;;;;;;;;15.00;86.40;;;;;;5004665;28;19921;-87
2023/04/28 11:43:35;;;;;;;;;;;15.00;87.30;;;;;;5007905;28;19914;-86
2023/04/28 11:46:00;;;;;;;;;;;15.00;87.60;;;;;;5002377;28;19914;-87
2023/04/28 11:48:26;;;;;;;;;;;15.20;87.60;;;;;;5006152;28;19920;-88
2023/04/28 11:50:51;;;;;;;;;;;15.20;87.40;;;;;;5007303;28;19997;-86
2023/04/28 11:53:19;;;;;;;;;;;15.20;86.60;;;;;;5016753;28;19925;-85
2023/04/28 11:55:44;;;;;;;;;;;15.20;87.30;;;;;;5017716;28;19919;-85
2023/04/28 11:58:23;;;;;;;;;;;15.10;87.10;;;;;;5008615;28;20340;-86
2023/04/28 12:01:08;;;;;;;;;;;15.20;87.40;;;;;;5004605;28;19925;-86
2023/04/28 12:03:49;;;;;;;;;;;15.20;87.30;;;;;;5024411;28;19921;-87
2023/04/28 12:06:17;;;;;;;;;;;15.10;87.70;;;;;;5024344;28;19917;-86
2023/04/28 12:08:43;;;;;;;;;;;15.10;88.30;;;;;;5009557;28;20297;-85
2023/04/28 12:11:09;;;;;;;;;;;15.00;87.90;;;;;;5018554;28;19924;-85
2023/04/28 12:13:35;;;;;;;;;;;15.10;88.10;;;;;;5011866;28;19960;-85
2023/04/28 12:16:02;;;;;;;;;;;15.10;88.00;;;;;;5010447;28;19917;-88
2023/04/28 12:18:28;;;;;;;;;;;15.10;87.70;;;;;;5011987;28;20000;-84
2023/04/28 12:20:53;;;;;;;;;;;15.10;88.20;;;;;;5008542;28;20008;-84
2023/04/28 12:23:32;;;;;;;;;;;15.10;87.80;;;;;;5009342;28;19968;-84
2023/04/28 12:25:58;;;;;;;;;;;15.20;87.90;;;;;;5010541;28;19928;-83
2023/04/28 12:28:26;;;;;;;;;;;15.30;87.90;;;;;;5009513;28;19913;-83
2023/04/28 12:31:02;;;;;;;;;;;15.40;87.80;;;;;;5022270;28;19917;-82
2023/04/28 12:33:28;;;;;;;;;;;15.40;87.60;;;;;;5001611;28;19918;-84
2023/04/28 12:35:57;;;;;;;;;;;15.50;88.20;;;;;;5008693;28;19969;-85
2023/04/28 12:38:23;;;;;;;;;;;15.60;87.50;;;;;;5017495;28;19913;-86
2023/04/28 12:40:48;;;;;;;;;;;15.60;87.10;;;;;;5010302;28;19992;-84
2023/04/28 12:43:14;;;;;;;;;;;15.60;87.20;;;;;;5019964;28;19918;-86
2023/04/28 12:45:40;;;;;;;;;;;15.70;87.00;;;;;;5030243;28;19913;-83
2023/04/28 12:48:06;;;;;;;;;;;15.70;86.30;;;;;;5018264;28;20346;-84
2023/04/28 12:50:32;;;;;;;;;;;15.80;86.10;;;;;;5013405;28;19925;-84
2023/04/28 12:52:57;;;;;;;;;;;15.70;86.10;;;;;;5018245;28;20268;-85
2023/04/28 12:55:23;;;;;;;;;;;15.60;86.00;;;;;;5022933;28;19914;-85
2023/04/28 12:57:48;;;;;;;;;;;15.60;85.60;;;;;;5009532;28;19917;-84
2023/04/28 13:00:15;;;;;;;;;;;15.60;86.10;;;;;;5010258;28;19917;-87
2023/04/28 13:02:40;;;;;;;;;;;15.60;86.60;;;;;;5017721;28;20279;-86
2023/04/28 13:05:06;;;;;;;;;;;15.60;86.50;;;;;;5009982;28;19917;-87
2023/04/28 13:07:32;;;;;;;;;;;15.70;86.40;;;;;;5009919;28;19913;-86
2023/04/28 13:09:58;;;;;;;;;;;15.80;85.40;;;;;;5010931;28;20762;-88
2023/04/28 13:12:23;;;;;;;;;;;15.80;85.60;;;;;;5016607;28;19997;-86
2023/04/28 13:14:49;;;;;;;;;;;16.00;85.60;;;;;;5016147;28;19936;-86
2023/04/28 13:17:45;;;;;;;;;;;16.10;84.50;;;;;;5010452;28;19957;-88
2023/04/28 13:20:14;;;;;;;;;;;16.30;83.70;;;;;;5001694;28;19932;-89
2023/04/28 13:23:00;;;;;;;;;;;16.50;83.50;;;;;;5010602;28;20005;-89
2023/04/28 13:25:26;;;;;;;;;;;16.80;82.60;;;;;;5024948;28;19944;-88
2023/04/28 13:27:51;;;;;;;;;;;16.80;82.10;;;;;;5011288;28;19917;-88
2023/04/28 13:30:17;;;;;;;;;;;16.80;80.40;;;;;;5003550;28;19910;-87
2023/04/28 13:32:42;;;;;;;;;;;16.90;80.90;;;;;;5007273;28;19996;-87
2023/04/28 13:35:08;;;;;;;;;;;17.00;81.30;;;;;;5005856;28;19921;-87
2023/04/28 13:37:34;;;;;;;;;;;17.20;80.80;;;;;;5011580;28;19920;-86
2023/04/28 13:40:02;;;;;;;;;;;17.30;80.90;;;;;;5007449;28;19977;-89
2023/04/28 13:42:28;;;;;;;;;;;17.30;79.40;;;;;;5015444;28;19968;-89
2023/04/28 13:44:58;;;;;;;;;;;17.50;78.70;;;;;;5008887;28;19921;-87
2023/04/28 13:47:25;;;;;;;;;;;17.40;79.20;;;;;;5009502;28;19914;-84
2023/04/28 13:49:50;;;;;;;;;;;17.60;79.50;;;;;;5004249;28;19917;-87
2023/04/28 13:52:16;;;;;;;;;;;17.60;79.00;;;;;;5012201;28;20324;-87
2023/04/28 13:54:41;;;;;;;;;;;17.60;78.90;;;;;;5018262;28;19948;-86
2023/04/28 13:57:07;;;;;;;;;;;17.60;78.60;;;;;;5008872;28;20004;-87
2023/04/28 14:02:33;;;;;;;;;;;17.90;76.90;;;;;;5003782;28;19968;-86
2023/04/28 14:04:59;;;;;;;;;;;17.80;76.80;;;;;;5010476;28;20294;-91
2023/04/28 14:07:25;;;;;;;;;;;17.70;77.80;;;;;;5010738;28;19925;-88
2023/04/28 14:09:50;;;;;;;;;;;17.90;77.70;;;;;;5004524;28;19921;-90
2023/04/28 14:12:15;;;;;;;;;;;18.00;77.50;;;;;;5021330;28;19983;-89
2023/04/28 14:14:41;;;;;;;;;;;18.10;77.00;;;;;;5008767;28;19968;-87
2023/04/28 14:17:07;;;;;;;;;;;18.20;76.00;;;;;;5005140;28;19968;-86
2023/04/28 14:19:33;;;;;;;;;;;18.20;75.40;;;;;;5016981;28;19985;-86